Time;durP1;ratioP1;P1;durP2;ratioP2;P2;SDS_P1;SDS_P2;PMS_P1;PMS_P2;Temp;Humidity;BMP_temperature;BMP_pressure;BME280_temperature;BME280_humidity;BME280_pressure;Samples;Min_cycle;Max_cycle;Signal;HPM_P1;HPM_P2
2024/01/01 00:01:52;;;;;;;19.90;6.63;;;7.80;99.90;;;;;;4615825;30;20055;-79
2024/01/01 00:04:17;;;;;;;21.67;8.38;;;7.90;99.90;;;;;;4612934;30;20057;-79
2024/01/01 00:06:43;;;;;;;20.38;7.20;;;7.80;99.90;;;;;;4620124;30;20048;-79
2024/01/01 00:09:08;;;;;;;15.77;6.45;;;7.80;99.90;;;;;;4699071;30;20161;-78
2024/01/01 00:11:36;;;;;;;14.45;5.88;;;7.90;99.90;;;;;;4739810;29;20099;-79
2024/01/01 00:14:01;;;;;;;14.88;6.65;;;8.00;99.90;;;;;;4751592;29;20036;-79
2024/01/01 00:16:27;;;;;;;21.98;7.80;;;8.00;99.90;;;;;;4732594;29;20039;-79
2024/01/01 00:18:52;;;;;;;18.05;7.43;;;7.90;99.90;;;;;;4746693;29;20029;-79
2024/01/01 00:21:18;;;;;;;15.43;6.13;;;8.00;99.90;;;;;;4745305;29;20425;-79
2024/01/01 00:23:44;;;;;;;17.83;5.68;;;8.00;99.90;;;;;;4747320;29;20633;-79
2024/01/01 00:26:10;;;;;;;15.98;6.50;;;8.00;99.90;;;;;;4731448;29;20135;-79
2024/01/01 00:28:35;;;;;;;14.52;6.28;;;8.10;99.90;;;;;;4745473;29;20048;-79
2024/01/01 00:31:01;;;;;;;9.68;5.32;;;8.10;99.90;;;;;;4745052;29;20398;-80
2024/01/01 00:33:38;;;;;;;14.02;5.07;;;8.10;99.90;;;;;;4759841;29;20044;-80
2024/01/01 00:36:03;;;;;;;13.05;5.88;;;8.10;99.90;;;;;;4744734;29;20535;-80
2024/01/01 00:38:29;;;;;;;6.28;3.30;;;8.10;99.90;;;;;;4735358;29;20047;-80
2024/01/01 00:40:54;;;;;;;15.98;5.93;;;8.20;99.90;;;;;;4744162;29;20037;-80
2024/01/01 00:43:20;;;;;;;18.25;5.72;;;8.10;99.90;;;;;;4762104;29;20036;-80
2024/01/01 00:45:45;;;;;;;18.48;5.82;;;8.10;99.90;;;;;;4732580;29;20499;-80
2024/01/01 00:48:11;;;;;;;13.82;4.53;;;8.20;99.90;;;;;;4746141;29;20779;-80
2024/01/01 00:50:37;;;;;;;10.23;4.00;;;8.10;99.90;;;;;;4759387;29;20679;-79
2024/01/01 00:53:03;;;;;;;10.30;4.40;;;8.20;99.90;;;;;;4761376;29;20040;-79
2024/01/01 00:55:28;;;;;;;6.00;2.35;;;8.20;99.90;;;;;;4747229;29;20674;-80
2024/01/01 00:57:54;;;;;;;10.80;3.42;;;8.20;99.90;;;;;;4736749;29;20188;-80
2024/01/01 01:00:19;;;;;;;12.85;4.28;;;8.10;99.90;;;;;;4733067;29;20098;-78
2024/01/01 01:02:45;;;;;;;17.33;3.67;;;8.20;99.90;;;;;;4746172;29;20024;-78
2024/01/01 01:05:11;;;;;;;12.95;4.70;;;8.20;99.90;;;;;;4726751;29;21327;-78
2024/01/01 01:07:36;;;;;;;10.57;3.63;;;8.10;99.90;;;;;;4751561;29;20080;-78
2024/01/01 01:10:04;;;;;;;8.98;3.50;;;8.20;99.90;;;;;;4836385;29;20041;-78
2024/01/01 01:12:29;;;;;;;15.15;4.53;;;8.10;99.90;;;;;;4861326;29;20526;-78
2024/01/01 01:14:55;;;;;;;10.00;4.53;;;8.10;99.90;;;;;;4889147;29;20033;-78
2024/01/01 01:17:21;;;;;;;11.02;3.55;;;8.10;99.90;;;;;;4878204;29;20030;-78
2024/01/01 01:19:46;;;;;;;7.05;3.15;;;8.10;99.90;;;;;;4863697;29;20041;-78
2024/01/01 01:22:12;;;;;;;11.30;3.60;;;8.10;99.90;;;;;;4864464;29;20097;-78
2024/01/01 01:24:37;;;;;;;12.23;4.32;;;8.10;99.90;;;;;;4878754;29;20046;-78
2024/01/01 01:27:03;;;;;;;8.65;2.88;;;8.10;99.90;;;;;;4865190;29;20962;-78
2024/01/01 01:29:28;;;;;;;9.35;2.10;;;8.10;99.90;;;;;;4863785;29;20034;-78
2024/01/01 01:31:54;;;;;;;11.52;2.65;;;8.10;99.90;;;;;;4877699;29;20136;-79
2024/01/01 01:34:21;;;;;;;11.88;3.22;;;8.10;99.90;;;;;;4875268;29;20034;-78
2024/01/01 01:36:47;;;;;;;9.63;2.33;;;8.10;99.90;;;;;;4878815;29;20116;-78
2024/01/01 01:39:12;;;;;;;12.93;1.98;;;8.10;99.90;;;;;;4865864;29;20109;-78
2024/01/01 01:41:38;;;;;;;7.25;1.98;;;8.10;99.90;;;;;;4877973;29;20058;-78
2024/01/01 01:44:04;;;;;;;12.85;2.25;;;8.10;99.90;;;;;;4869823;29;20033;-78
2024/01/01 01:46:30;;;;;;;9.88;2.10;;;8.20;99.90;;;;;;4877961;29;20034;-79
2024/01/01 01:48:56;;;;;;;8.52;1.85;;;8.10;99.90;;;;;;4872952;29;20053;-78
2024/01/01 01:51:21;;;;;;;8.38;1.77;;;8.00;99.90;;;;;;4880124;29;20036;-78
2024/01/01 01:53:47;;;;;;;7.55;1.52;;;8.00;99.90;;;;;;4864173;29;20038;-78
2024/01/01 01:56:14;;;;;;;5.47;1.77;;;8.00;99.90;;;;;;4878324;29;20125;-78
2024/01/01 01:58:40;;;;;;;7.25;1.63;;;8.00;99.90;;;;;;4893130;29;20052;-78
2024/01/01 02:01:06;;;;;;;7.60;1.65;;;8.00;99.90;;;;;;4862325;29;20038;-78
2024/01/01 02:03:32;;;;;;;6.63;1.05;;;8.00;99.90;;;;;;4877273;29;20493;-78
2024/01/01 02:05:57;;;;;;;9.38;1.35;;;8.20;99.90;;;;;;4873360;29;20050;-78
2024/01/01 02:08:23;;;;;;;4.18;1.33;;;8.10;99.90;;;;;;4889551;28;20545;-78
2024/01/01 02:10:49;;;;;;;7.72;1.20;;;8.10;99.90;;;;;;4949969;28;20046;-79
2024/01/01 02:13:27;;;;;;;8.05;1.25;;;8.10;99.90;;;;;;4955668;28;20179;-79
2024/01/01 02:15:53;;;;;;;6.38;1.20;;;8.10;99.90;;;;;;4930541;28;20042;-79
2024/01/01 02:18:19;;;;;;;5.60;1.48;;;8.10;99.90;;;;;;4960627;28;20547;-80
2024/01/01 02:24:08;;;;;;;9.88;1.25;;;8.00;99.90;;;;;;4972648;28;20114;-79
2024/01/01 02:26:34;;;;;;;7.50;1.70;;;8.00;99.90;;;;;;4961236;28;20522;-79
2024/01/01 02:29:00;;;;;;;12.25;1.92;;;8.00;99.90;;;;;;4944846;28;20026;-80
2024/01/01 02:31:25;;;;;;;9.45;2.70;;;7.80;99.90;;;;;;4940228;28;20046;-80
2024/01/01 02:33:51;;;;;;;6.22;1.17;;;7.80;99.90;;;;;;4956501;28;20033;-79
2024/01/01 02:36:17;;;;;;;12.38;2.72;;;7.80;99.90;;;;;;4945237;28;20045;-79
2024/01/01 02:38:42;;;;;;;9.57;1.70;;;7.70;99.90;;;;;;4952081;28;20062;-79
2024/01/01 02:41:08;;;;;;;10.60;1.45;;;7.60;99.90;;;;;;4961056;28;20055;-79
2024/01/01 02:43:33;;;;;;;7.78;1.58;;;7.50;99.90;;;;;;4958697;28;20074;-79
2024/01/01 02:45:59;;;;;;;7.85;1.48;;;7.50;99.90;;;;;;4950650;28;20043;-78
2024/01/01 02:48:24;;;;;;;5.05;1.13;;;7.40;99.90;;;;;;4946728;28;22334;-80
2024/01/01 02:50:50;;;;;;;3.33;0.85;;;7.30;99.90;;;;;;4956098;28;20089;-78
2024/01/01 02:53:15;;;;;;;1.23;0.60;;;7.30;99.90;;;;;;4946792;28;20085;-77
2024/01/01 02:55:41;;;;;;;4.18;1.15;;;7.20;99.90;;;;;;4955273;28;20023;-77
2024/01/01 02:58:07;;;;;;;9.00;1.83;;;7.20;99.90;;;;;;4961490;28;20117;-78
2024/01/01 03:00:32;;;;;;;8.25;1.15;;;7.10;99.90;;;;;;4947851;28;20039;-78
2024/01/01 03:02:58;;;;;;;3.65;1.05;;;7.10;99.90;;;;;;4962439;28;20415;-78
2024/01/01 03:05:25;;;;;;;4.65;0.93;;;7.00;99.90;;;;;;4947714;28;20553;-78
2024/01/01 03:07:51;;;;;;;10.50;1.10;;;7.10;99.90;;;;;;4948256;28;20045;-78
2024/01/01 03:10:17;;;;;;;6.57;0.98;;;7.00;99.90;;;;;;4965787;28;20035;-77
2024/01/01 03:12:43;;;;;;;3.03;1.27;;;7.00;99.90;;;;;;4935021;28;20047;-77
2024/01/01 03:15:09;;;;;;;4.30;0.88;;;7.00;99.90;;;;;;4952773;28;20531;-80
2024/01/01 03:17:34;;;;;;;2.20;0.55;;;7.00;99.90;;;;;;4962463;28;20054;-78
2024/01/01 03:20:00;;;;;;;3.78;0.77;;;7.00;99.90;;;;;;4937457;28;20062;-78
2024/01/01 03:22:26;;;;;;;5.93;0.55;;;7.00;99.90;;;;;;4951601;28;20090;-78
2024/01/01 03:24:52;;;;;;;5.78;0.90;;;6.90;99.90;;;;;;4965355;28;20084;-79
2024/01/01 03:27:17;;;;;;;2.58;1.02;;;7.00;99.90;;;;;;4934117;28;20052;-78
2024/01/01 03:29:43;;;;;;;4.47;1.00;;;6.90;99.90;;;;;;4948416;28;20041;-78
2024/01/01 03:32:09;;;;;;;6.75;1.17;;;6.90;99.90;;;;;;4951306;28;20030;-78
2024/01/01 03:34:34;;;;;;;5.78;1.08;;;6.90;99.90;;;;;;4934539;28;20095;-78
2024/01/01 03:37:01;;;;;;;4.32;0.98;;;6.80;99.90;;;;;;4937316;28;20043;-80
2024/01/01 03:39:26;;;;;;;6.32;1.00;;;6.90;99.90;;;;;;4966896;28;20030;-78
2024/01/01 03:41:52;;;;;;;5.32;1.50;;;6.80;99.90;;;;;;4952163;28;20734;-78
2024/01/01 03:44:17;;;;;;;7.22;1.17;;;6.80;99.90;;;;;;4966749;28;21490;-78
2024/01/01 03:46:44;;;;;;;10.52;2.13;;;6.90;99.90;;;;;;4950379;28;20035;-78
2024/01/01 03:49:10;;;;;;;3.80;0.95;;;6.90;99.90;;;;;;4963716;28;20036;-78
2024/01/01 03:51:36;;;;;;;10.38;1.67;;;6.90;99.90;;;;;;4955560;28;20030;-78
2024/01/01 03:54:01;;;;;;;3.15;0.68;;;6.90;99.90;;;;;;4963535;28;20392;-78
2024/01/01 03:56:27;;;;;;;10.93;1.88;;;6.90;99.90;;;;;;4966519;28;20150;-78
2024/01/01 03:58:53;;;;;;;4.60;1.20;;;6.90;99.90;;;;;;4966793;28;20046;-78
2024/01/01 04:01:20;;;;;;;6.13;1.05;;;6.90;99.90;;;;;;4954299;28;20042;-78
2024/01/01 04:03:46;;;;;;;6.63;1.10;;;7.10;99.90;;;;;;4963023;28;20053;-78
2024/01/01 04:06:11;;;;;;;6.43;1.27;;;6.90;99.90;;;;;;4976660;28;20481;-78
2024/01/01 04:08:37;;;;;;;9.32;1.42;;;6.90;99.90;;;;;;4928108;28;20050;-79
2024/01/01 04:11:02;;;;;;;5.18;0.98;;;6.90;99.90;;;;;;4959757;28;20119;-78
2024/01/01 04:13:28;;;;;;;10.30;1.63;;;6.90;99.90;;;;;;4944520;28;20058;-78
2024/01/01 04:15:53;;;;;;;3.90;0.77;;;6.90;99.90;;;;;;4940359;28;20031;-78
2024/01/01 04:18:19;;;;;;;5.72;1.17;;;6.90;99.90;;;;;;4941790;28;20176;-78
2024/01/01 04:20:45;;;;;;;14.30;2.15;;;6.90;99.90;;;;;;4929514;28;20114;-79
2024/01/01 04:23:10;;;;;;;6.20;0.70;;;6.90;99.90;;;;;;4927540;29;20528;-79
2024/01/01 04:25:36;;;;;;;13.23;2.03;;;6.90;99.90;;;;;;4947254;28;20609;-79
2024/01/01 04:28:01;;;;;;;12.68;1.70;;;6.80;99.90;;;;;;4948379;28;20528;-79
2024/01/01 04:30:27;;;;;;;3.90;1.17;;;6.90;99.90;;;;;;4956555;28;20106;-77
2024/01/01 04:32:52;;;;;;;27.17;2.67;;;6.90;99.90;;;;;;4927065;28;20141;-79
2024/01/01 04:35:18;;;;;;;7.30;1.00;;;6.90;99.90;;;;;;4925063;28;20031;-79
2024/01/01 04:37:43;;;;;;;4.30;1.25;;;6.90;99.90;;;;;;4957591;28;20054;-77
2024/01/01 04:40:09;;;;;;;3.92;0.60;;;7.00;99.90;;;;;;4960121;28;20034;-77
2024/01/01 04:42:34;;;;;;;15.43;2.25;;;7.00;99.90;;;;;;4920678;28;20036;-78
2024/01/01 04:45:00;;;;;;;11.15;3.30;;;7.00;99.90;;;;;;4940173;28;20069;-77
2024/01/01 04:47:26;;;;;;;10.27;1.73;;;6.90;99.90;;;;;;4926652;28;20039;-77
2024/01/01 04:49:51;;;;;;;9.05;1.33;;;6.90;99.90;;;;;;4939839;28;20061;-77
2024/01/01 04:52:18;;;;;;;8.30;1.20;;;7.00;99.90;;;;;;4941786;28;20031;-77
2024/01/01 04:54:44;;;;;;;7.93;1.45;;;7.00;99.90;;;;;;4940269;28;20112;-77
2024/01/01 04:57:10;;;;;;;6.53;0.90;;;7.00;99.90;;;;;;4927036;28;20110;-77
2024/01/01 04:59:35;;;;;;;7.90;1.63;;;7.00;99.90;;;;;;4924691;28;20074;-77
2024/01/01 05:02:01;;;;;;;14.90;1.73;;;6.90;99.90;;;;;;4957250;28;20101;-77
2024/01/01 05:04:26;;;;;;;8.50;1.80;;;7.00;99.90;;;;;;4924389;28;20433;-76
2024/01/01 05:06:52;;;;;;;8.18;1.52;;;7.00;99.90;;;;;;4926120;28;20429;-77
2024/01/01 05:09:17;;;;;;;5.85;1.75;;;7.00;99.90;;;;;;4956012;28;20039;-77
2024/01/01 05:11:43;;;;;;;13.13;1.33;;;7.10;99.90;;;;;;4926816;28;20486;-78
2024/01/01 05:14:09;;;;;;;3.35;1.33;;;7.00;99.90;;;;;;4924350;29;20043;-79
2024/01/01 05:16:35;;;;;;;11.27;1.42;;;7.10;99.90;;;;;;4955634;28;20069;-79
2024/01/01 05:19:01;;;;;;;6.85;1.70;;;7.10;99.90;;;;;;4956091;28;20027;-79
2024/01/01 05:21:27;;;;;;;10.82;1.30;;;7.10;99.90;;;;;;4928323;28;20039;-81
2024/01/01 05:23:52;;;;;;;8.95;1.83;;;7.10;99.90;;;;;;4928064;28;20027;-79
2024/01/01 05:26:18;;;;;;;5.45;0.82;;;7.10;99.90;;;;;;4923675;28;20563;-80
2024/01/01 05:28:43;;;;;;;16.20;1.40;;;7.10;99.90;;;;;;4946923;28;20135;-80
2024/01/01 05:31:09;;;;;;;12.60;1.25;;;7.10;99.90;;;;;;4906058;29;20075;-80
2024/01/01 05:33:35;;;;;;;6.80;1.85;;;7.20;99.90;;;;;;4943953;28;20046;-79
2024/01/01 05:36:01;;;;;;;4.65;0.80;;;7.10;99.90;;;;;;4912454;28;20094;-80
2024/01/01 05:38:26;;;;;;;8.35;1.38;;;7.20;99.90;;;;;;4913871;28;20035;-79
2024/01/01 05:40:52;;;;;;;15.07;3.35;;;7.20;99.90;;;;;;4910213;28;20046;-78
2024/01/01 05:43:18;;;;;;;13.50;1.63;;;7.20;99.90;;;;;;4944875;28;20114;-78
2024/01/01 05:45:44;;;;;;;6.22;1.98;;;7.20;99.90;;;;;;4927353;28;20154;-77
2024/01/01 05:48:10;;;;;;;8.35;1.92;;;7.20;99.90;;;;;;4929192;29;20035;-78
2024/01/01 05:50:35;;;;;;;10.32;1.38;;;7.20;99.90;;;;;;4944479;28;20038;-78
2024/01/01 05:53:01;;;;;;;10.45;1.25;;;7.30;99.90;;;;;;4910638;28;20039;-78
2024/01/01 05:55:26;;;;;;;9.30;1.20;;;7.30;99.90;;;;;;4926749;28;20032;-77
2024/01/01 05:57:53;;;;;;;7.35;1.13;;;7.20;99.90;;;;;;4930195;28;20023;-77
2024/01/01 06:00:21;;;;;;;18.13;2.13;;;7.30;99.90;;;;;;4954844;28;20042;-77
2024/01/01 06:02:47;;;;;;;6.45;1.67;;;7.30;99.90;;;;;;4946360;28;20492;-78
2024/01/01 06:05:13;;;;;;;7.22;1.02;;;7.30;99.90;;;;;;4926062;28;20046;-78
2024/01/01 06:07:38;;;;;;;9.20;0.90;;;7.30;99.90;;;;;;4927600;28;20046;-77
2024/01/01 06:10:04;;;;;;;9.63;1.98;;;7.30;99.90;;;;;;4947318;28;20074;-78
2024/01/01 06:12:30;;;;;;;9.15;2.47;;;7.30;99.90;;;;;;4944559;28;20035;-78
2024/01/01 06:14:56;;;;;;;5.03;1.13;;;7.40;99.90;;;;;;4930392;28;20807;-78
2024/01/01 06:17:21;;;;;;;5.38;1.20;;;7.40;99.90;;;;;;4944604;28;20072;-78
2024/01/01 06:19:48;;;;;;;7.03;1.90;;;7.40;99.90;;;;;;4930365;28;20445;-78
2024/01/01 06:22:14;;;;;;;11.60;2.40;;;7.40;99.90;;;;;;4931559;28;20517;-78
2024/01/01 06:24:40;;;;;;;10.02;2.45;;;7.40;99.90;;;;;;4930476;28;20049;-78
2024/01/01 06:27:05;;;;;;;6.55;0.98;;;7.30;99.90;;;;;;4927309;28;20035;-77
2024/01/01 06:29:30;;;;;;;10.18;1.48;;;7.30;99.90;;;;;;4943234;28;20525;-78
2024/01/01 06:31:57;;;;;;;14.68;0.60;;;7.40;99.90;;;;;;4945694;28;20058;-78
2024/01/01 06:34:23;;;;;;;7.22;0.85;;;7.40;99.90;;;;;;4932220;28;20035;-78
2024/01/01 06:36:48;;;;;;;3.28;1.30;;;7.50;99.90;;;;;;4949624;28;20033;-77
2024/01/01 06:39:14;;;;;;;5.40;1.25;;;7.40;99.90;;;;;;4935609;28;20453;-77
2024/01/01 06:41:40;;;;;;;6.35;0.77;;;7.40;99.90;;;;;;4920297;28;20023;-79
2024/01/01 06:44:06;;;;;;;4.68;0.65;;;7.40;99.90;;;;;;4947373;28;20544;-79
2024/01/01 06:46:31;;;;;;;11.02;1.88;;;7.40;99.90;;;;;;4936909;28;20126;-79
2024/01/01 06:48:57;;;;;;;9.40;1.70;;;7.40;99.90;;;;;;4949264;28;20077;-79
2024/01/01 06:51:22;;;;;;;5.90;1.77;;;7.30;99.90;;;;;;4932166;28;20035;-78
2024/01/01 06:53:48;;;;;;;8.88;1.80;;;7.40;99.90;;;;;;4936199;28;20027;-78
2024/01/01 06:56:13;;;;;;;9.93;1.52;;;7.40;99.90;;;;;;4951822;28;20406;-77
2024/01/01 06:58:39;;;;;;;14.32;2.88;;;7.30;99.90;;;;;;4945562;28;20706;-76
2024/01/01 07:01:04;;;;;;;3.95;0.93;;;7.30;99.90;;;;;;4929201;28;20039;-77
2024/01/01 07:03:31;;;;;;;8.63;0.90;;;7.30;99.90;;;;;;4934850;28;20501;-77
2024/01/01 07:05:56;;;;;;;7.95;1.33;;;7.30;99.90;;;;;;4932917;28;20046;-78
2024/01/01 07:08:23;;;;;;;12.75;1.33;;;7.20;99.90;;;;;;4947506;28;20564;-77
2024/01/01 07:10:48;;;;;;;6.40;1.33;;;7.10;99.90;;;;;;4949184;28;20023;-77
2024/01/01 07:13:14;;;;;;;6.22;1.58;;;7.00;99.90;;;;;;4947692;28;20526;-77
2024/01/01 07:15:40;;;;;;;2.10;1.05;;;7.00;99.90;;;;;;4948148;28;20045;-77
2024/01/01 07:18:07;;;;;;;5.70;1.38;;;7.00;99.90;;;;;;4947504;28;20081;-78
2024/01/01 07:20:35;;;;;;;7.45;0.98;;;7.00;99.90;;;;;;4933143;28;20572;-77
2024/01/01 07:23:01;;;;;;;5.00;0.75;;;7.00;99.90;;;;;;4916753;28;20349;-78
2024/01/01 07:25:26;;;;;;;2.85;0.52;;;7.00;99.90;;;;;;4945934;28;20054;-78
2024/01/01 07:27:53;;;;;;;13.27;1.92;;;6.90;99.90;;;;;;4933585;28;20019;-78
2024/01/01 07:30:19;;;;;;;4.47;1.05;;;6.90;99.90;;;;;;4933558;28;20023;-77
2024/01/01 07:32:44;;;;;;;8.05;2.03;;;6.90;99.90;;;;;;4934039;28;20031;-78
2024/01/01 07:35:10;;;;;;;6.47;1.50;;;6.90;99.90;;;;;;4948718;28;20645;-77
2024/01/01 07:37:35;;;;;;;3.83;1.23;;;6.90;99.90;;;;;;4948532;28;20400;-77
2024/01/01 07:40:01;;;;;;;6.28;0.93;;;6.90;99.90;;;;;;4928928;28;20038;-77
2024/01/01 07:42:27;;;;;;;7.28;1.85;;;6.90;99.90;;;;;;4931079;28;20039;-77
2024/01/01 07:44:53;;;;;;;7.82;1.67;;;6.80;99.90;;;;;;4913221;28;20125;-78
2024/01/01 07:47:19;;;;;;;5.07;1.08;;;6.80;99.90;;;;;;4946241;28;20477;-77
2024/01/01 07:49:45;;;;;;;11.32;2.10;;;6.80;99.90;;;;;;4947154;28;20027;-77
2024/01/01 07:52:12;;;;;;;0.90;0.73;;;6.90;99.90;;;;;;4949008;28;20062;-77
2024/01/01 07:54:39;;;;;;;7.60;1.35;;;6.80;99.90;;;;;;4935947;28;20392;-77
2024/01/01 07:57:06;;;;;;;1.85;0.52;;;6.80;99.90;;;;;;4934190;28;20035;-77
2024/01/01 07:59:32;;;;;;;7.85;1.33;;;6.90;99.90;;;;;;4929072;28;20031;-77
2024/01/01 08:01:57;;;;;;;6.07;1.02;;;6.90;99.90;;;;;;4928972;28;20042;-77
2024/01/01 08:04:23;;;;;;;2.50;0.73;;;6.90;99.90;;;;;;4934336;28;20031;-77
2024/01/01 08:06:49;;;;;;;4.40;1.27;;;7.00;99.90;;;;;;4947321;28;20043;-77
2024/01/01 08:09:14;;;;;;;5.53;1.05;;;6.90;99.90;;;;;;4946800;28;20067;-77
2024/01/01 08:11:40;;;;;;;4.03;0.57;;;6.90;99.90;;;;;;4934605;28;20039;-77
2024/01/01 08:14:05;;;;;;;4.00;1.08;;;6.90;99.90;;;;;;4931281;28;20412;-77
2024/01/01 08:16:33;;;;;;;4.57;0.40;;;6.90;99.90;;;;;;4942877;28;20125;-77
2024/01/01 08:18:59;;;;;;;3.85;0.98;;;6.90;99.90;;;;;;4931242;28;20034;-77
2024/01/01 08:21:25;;;;;;;2.33;0.88;;;7.00;99.90;;;;;;4945004;28;20500;-77
2024/01/01 08:23:50;;;;;;;6.38;1.20;;;6.90;99.90;;;;;;4930345;28;20071;-76
2024/01/01 08:26:16;;;;;;;3.00;0.70;;;7.00;99.90;;;;;;4931652;28;20050;-77
2024/01/01 08:28:42;;;;;;;6.40;1.00;;;7.00;99.90;;;;;;4944958;28;20748;-78
2024/01/01 08:31:07;;;;;;;4.57;0.55;;;7.10;99.90;;;;;;4937349;28;20091;-77
2024/01/01 08:33:33;;;;;;;6.65;1.67;;;7.10;99.90;;;;;;4945394;28;20034;-78
2024/01/01 08:35:58;;;;;;;3.45;0.77;;;7.10;99.90;;;;;;4945585;28;20087;-77
2024/01/01 08:38:24;;;;;;;8.15;0.70;;;7.10;99.90;;;;;;4962253;28;20057;-78
2024/01/01 08:40:50;;;;;;;2.78;0.40;;;7.10;99.90;;;;;;4931476;28;20047;-78
2024/01/01 08:43:16;;;;;;;1.48;0.45;;;7.00;99.90;;;;;;4931398;28;20030;-78
2024/01/01 08:45:41;;;;;;;2.97;0.65;;;7.10;99.90;;;;;;4926573;28;20093;-79
2024/01/01 08:48:07;;;;;;;2.45;0.80;;;7.10;99.90;;;;;;4927175;28;20042;-77
2024/01/01 08:50:33;;;;;;;0.52;0.22;;;7.10;99.90;;;;;;4943327;28;20114;-78
2024/01/01 08:52:59;;;;;;;3.75;0.75;;;7.20;99.90;;;;;;4929506;28;20517;-77
2024/01/01 08:55:24;;;;;;;3.05;0.43;;;7.10;99.90;;;;;;4945736;28;20041;-78
2024/01/01 08:57:50;;;;;;;7.18;1.20;;;7.10;99.90;;;;;;4944936;28;20049;-77
2024/01/01 09:00:18;;;;;;;3.50;0.73;;;7.20;99.90;;;;;;4940810;28;20050;-77
2024/01/01 09:02:44;;;;;;;6.85;1.42;;;7.10;99.90;;;;;;4947019;28;20031;-77
2024/01/01 09:05:09;;;;;;;0.75;0.38;;;7.10;99.90;;;;;;4929213;28;20540;-77
2024/01/01 09:07:35;;;;;;;4.85;0.77;;;7.10;99.90;;;;;;4928652;28;20045;-78
2024/01/01 09:10:02;;;;;;;2.88;0.40;;;7.20;99.90;;;;;;4911749;28;20476;-79
2024/01/01 09:12:28;;;;;;;4.47;0.75;;;7.30;99.90;;;;;;4947104;28;20034;-78
2024/01/01 09:14:55;;;;;;;6.65;1.17;;;7.20;99.90;;;;;;4957883;28;20061;-78
2024/01/01 09:17:20;;;;;;;1.55;0.35;;;7.20;99.90;;;;;;4948076;28;20031;-77
2024/01/01 09:19:46;;;;;;;4.03;0.65;;;7.20;99.90;;;;;;4931360;28;20026;-77
2024/01/01 09:22:12;;;;;;;4.22;0.85;;;7.20;99.90;;;;;;4927913;28;20035;-78
2024/01/01 09:24:37;;;;;;;2.63;0.77;;;7.30;99.90;;;;;;4946959;28;20066;-78
2024/01/01 09:27:03;;;;;;;4.57;0.63;;;7.30;99.90;;;;;;4930781;28;20085;-78
2024/01/01 09:29:29;;;;;;;10.30;1.08;;;7.30;99.90;;;;;;4943792;28;20046;-78
2024/01/01 09:31:55;;;;;;;3.63;1.30;;;7.30;99.90;;;;;;4947055;28;20050;-78
2024/01/01 09:34:20;;;;;;;2.72;0.52;;;7.30;99.90;;;;;;4926546;28;20031;-78
2024/01/01 09:36:46;;;;;;;1.00;0.68;;;7.30;99.90;;;;;;4941550;28;20366;-79
2024/01/01 09:39:12;;;;;;;2.55;0.70;;;7.30;99.90;;;;;;4924366;28;20114;-80
2024/01/01 09:41:37;;;;;;;1.75;0.35;;;7.30;99.90;;;;;;4948498;28;20179;-79
2024/01/01 09:44:03;;;;;;;3.65;0.95;;;7.30;99.90;;;;;;4926086;28;20031;-79
2024/01/01 09:46:32;;;;;;;2.17;0.70;;;7.30;99.90;;;;;;4930531;28;20042;-79
2024/01/01 09:49:01;;;;;;;6.32;0.73;;;7.30;99.90;;;;;;4936761;28;20397;-79
2024/01/01 09:51:27;;;;;;;5.38;0.80;;;7.30;99.90;;;;;;4960253;28;20039;-78
2024/01/01 09:53:53;;;;;;;5.13;0.60;;;7.40;99.90;;;;;;4925668;28;20038;-79
2024/01/01 09:56:18;;;;;;;2.50;0.82;;;7.40;99.90;;;;;;4946635;28;20062;-79
2024/01/01 09:58:44;;;;;;;2.75;1.05;;;7.40;99.90;;;;;;4932991;28;20090;-81
2024/01/01 10:01:11;;;;;;;2.60;0.98;;;7.40;99.90;;;;;;4945344;28;20043;-79
2024/01/01 10:03:37;;;;;;;4.25;0.50;;;7.30;99.90;;;;;;4931420;28;20117;-80
2024/01/01 10:06:10;;;;;;;7.38;0.70;;;7.30;99.90;;;;;;4947567;28;20420;-79
2024/01/01 10:08:35;;;;;;;2.13;0.50;;;7.40;99.90;;;;;;4946724;28;20093;-79
2024/01/01 10:11:18;;;;;;;2.42;0.70;;;7.40;99.90;;;;;;4949580;28;20433;-79
2024/01/01 10:13:44;;;;;;;4.65;1.23;;;7.40;99.90;;;;;;4919896;28;20031;-79
2024/01/01 10:16:09;;;;;;;15.02;1.15;;;7.40;99.90;;;;;;4950715;28;20123;-78
2024/01/01 10:18:37;;;;;;;1.50;0.60;;;7.50;99.90;;;;;;4951574;28;20023;-79
2024/01/01 10:21:10;;;;;;;9.02;1.73;;;7.40;99.90;;;;;;4913673;28;20031;-79
2024/01/01 10:23:36;;;;;;;5.05;1.50;;;7.40;99.90;;;;;;4947839;28;20542;-79
2024/01/01 10:26:04;;;;;;;6.45;1.35;;;7.30;99.90;;;;;;4936289;28;20054;-79
2024/01/01 10:28:31;;;;;;;6.65;1.02;;;7.30;99.90;;;;;;4951871;28;20386;-80
2024/01/01 10:30:57;;;;;;;5.68;1.45;;;7.30;99.90;;;;;;4932943;28;20046;-79
2024/01/01 10:33:24;;;;;;;5.22;0.90;;;7.40;99.90;;;;;;4946189;28;20042;-79
2024/01/01 10:35:50;;;;;;;3.85;0.90;;;7.40;99.90;;;;;;4964656;28;20054;-80
2024/01/01 10:38:17;;;;;;;3.40;1.05;;;7.40;99.90;;;;;;4948186;28;20063;-79
2024/01/01 10:40:44;;;;;;;8.18;0.80;;;7.40;99.90;;;;;;4930282;28;20405;-80
2024/01/01 10:43:10;;;;;;;4.05;1.17;;;7.40;99.90;;;;;;4959294;28;20035;-80
2024/01/01 10:45:36;;;;;;;10.23;1.35;;;7.90;99.90;;;;;;4946968;28;20066;-83
2024/01/01 10:48:01;;;;;;;4.20;1.33;;;8.00;99.90;;;;;;4939613;28;20035;-81
2024/01/01 10:50:31;;;;;;;7.97;1.05;;;8.10;99.90;;;;;;4947753;28;20481;-81
2024/01/01 10:53:15;;;;;;;1.13;0.65;;;7.90;99.90;;;;;;4934028;28;20189;-81
2024/01/01 10:55:41;;;;;;;7.53;0.55;;;7.90;99.90;;;;;;4949075;28;20034;-81
2024/01/01 10:58:27;;;;;;;2.58;0.90;;;7.90;99.90;;;;;;4963314;28;20468;-80
2024/01/01 11:01:02;;;;;;;5.38;1.45;;;7.90;99.90;;;;;;4936890;28;20118;-80
2024/01/01 11:03:30;;;;;;;13.68;1.00;;;7.90;99.90;;;;;;4949676;28;20488;-81
2024/01/01 11:05:55;;;;;;;4.38;0.70;;;7.90;99.90;;;;;;4948711;28;20027;-80
2024/01/01 11:08:26;;;;;;;2.08;0.93;;;7.90;99.90;;;;;;4949612;28;20101;-80
2024/01/01 11:10:51;;;;;;;5.97;0.85;;;7.90;99.90;;;;;;4960019;28;20118;-80
2024/01/01 11:13:26;;;;;;;3.10;0.90;;;7.90;99.90;;;;;;4932625;28;20556;-80
2024/01/01 11:16:03;;;;;;;5.95;0.93;;;8.00;99.90;;;;;;4950272;28;20049;-80
2024/01/01 11:18:33;;;;;;;2.35;1.10;;;7.90;99.90;;;;;;4948588;28;20039;-80
2024/01/01 11:21:01;;;;;;;2.85;0.57;;;7.90;99.90;;;;;;4942923;28;20086;-80
2024/01/01 11:23:46;;;;;;;1.75;0.80;;;7.90;99.90;;;;;;4910651;28;20069;-81
2024/01/01 11:26:32;;;;;;;1.25;0.50;;;7.90;99.90;;;;;;4928086;28;20438;-80
2024/01/01 11:29:24;;;;;;;4.55;0.98;;;7.90;99.90;;;;;;4949910;28;20380;-78
2024/01/01 11:31:58;;;;;;;12.63;1.27;;;7.90;99.90;;;;;;4944616;28;20023;-79
2024/01/01 11:34:24;;;;;;;4.47;0.80;;;7.90;99.90;;;;;;4930771;28;20035;-78
2024/01/01 11:36:50;;;;;;;4.88;1.13;;;7.90;99.90;;;;;;4947057;28;20122;-79
2024/01/01 11:39:16;;;;;;;3.28;0.75;;;8.00;99.90;;;;;;4932149;28;20034;-80
2024/01/01 11:41:41;;;;;;;5.40;1.38;;;8.10;99.90;;;;;;4927799;28;20054;-79
2024/01/01 11:44:14;;;;;;;1.38;0.38;;;8.10;99.90;;;;;;4934092;28;20045;-79
2024/01/01 11:46:39;;;;;;;5.28;0.80;;;8.00;99.90;;;;;;4928700;28;20055;-79
2024/01/01 11:49:07;;;;;;;10.18;1.40;;;8.00;99.90;;;;;;4905118;28;20035;-80
2024/01/01 11:51:50;;;;;;;8.23;0.82;;;8.00;99.90;;;;;;4893361;28;20095;-79
2024/01/01 11:54:16;;;;;;;2.45;0.73;;;8.00;99.90;;;;;;4939320;28;20047;-79
2024/01/01 11:56:45;;;;;;;5.90;1.48;;;7.90;99.90;;;;;;4910674;28;20042;-80
2024/01/01 11:59:11;;;;;;;2.83;0.73;;;7.90;99.90;;;;;;4945891;28;20038;-79
2024/01/01 12:01:37;;;;;;;7.75;1.30;;;7.90;99.90;;;;;;4933889;28;20477;-79
2024/01/01 12:04:05;;;;;;;6.15;1.35;;;7.80;99.90;;;;;;4944196;28;20154;-79
2024/01/01 12:06:31;;;;;;;10.20;1.83;;;7.80;99.90;;;;;;4927203;28;20094;-79
2024/01/01 12:09:10;;;;;;;5.10;1.25;;;7.80;99.90;;;;;;4931948;28;20527;-79
2024/01/01 12:11:37;;;;;;;7.45;1.08;;;7.80;99.90;;;;;;4947123;28;20448;-79
2024/01/01 12:14:03;;;;;;;10.45;1.52;;;7.80;99.90;;;;;;4946930;28;20127;-78
2024/01/01 12:16:29;;;;;;;7.32;2.15;;;7.70;99.90;;;;;;4928225;28;20042;-78
2024/01/01 12:18:59;;;;;;;9.13;1.48;;;7.70;99.90;;;;;;4913526;28;20047;-79
2024/01/01 12:21:25;;;;;;;4.50;1.40;;;7.80;99.90;;;;;;4946078;28;20528;-79
2024/01/01 12:24:02;;;;;;;5.25;0.80;;;7.80;99.90;;;;;;4930210;28;20129;-79
2024/01/01 12:26:27;;;;;;;5.13;0.75;;;7.80;99.90;;;;;;4928520;28;20535;-79
2024/01/01 12:29:12;;;;;;;12.02;1.67;;;7.80;99.90;;;;;;4939483;28;20039;-78
2024/01/01 12:31:39;;;;;;;7.30;1.23;;;7.90;99.90;;;;;;4947927;28;20065;-79
2024/01/01 12:34:05;;;;;;;4.13;0.60;;;7.90;99.90;;;;;;4928575;28;20396;-78
2024/01/01 12:36:31;;;;;;;4.95;1.05;;;8.00;99.90;;;;;;4932362;28;20535;-78
2024/01/01 12:38:57;;;;;;;2.28;0.70;;;7.90;99.90;;;;;;4919604;28;20039;-78
2024/01/01 12:41:22;;;;;;;4.82;1.10;;;8.00;99.90;;;;;;4930610;28;20037;-78
2024/01/01 12:43:48;;;;;;;8.05;1.08;;;8.00;99.90;;;;;;4931856;28;20142;-78
2024/01/01 12:46:13;;;;;;;7.30;1.83;;;8.00;99.90;;;;;;4959641;28;20473;-78
2024/01/01 12:48:45;;;;;;;13.45;2.00;;;8.00;99.90;;;;;;4943082;28;20548;-79
2024/01/01 12:51:14;;;;;;;8.00;1.80;;;8.10;99.90;;;;;;4947708;28;20101;-78
2024/01/01 12:53:40;;;;;;;9.05;1.38;;;8.10;99.90;;;;;;4948092;28;20034;-78
2024/01/01 12:56:06;;;;;;;3.78;0.60;;;8.10;99.90;;;;;;4960754;28;20598;-78